sensor_id;sensor_type;location;lat;lon;timestamp;pressure;altitude;pressure_sealevel;temperature;humidity
85268;BME280;75677;52.380;4.876;2024-01-11T16:37:22;103475.66;;;17.67;35.05
85268;BME280;75677;52.380;4.876;2024-01-11T16:39:48;103479.16;;;17.76;34.71
85268;BME280;75677;52.380;4.876;2024-01-11T16:42:14;103484.28;;;17.74;34.94
85268;BME280;75677;52.380;4.876;2024-01-11T16:44:44;103476.81;;;17.78;34.95
85268;BME280;75677;52.380;4.876;2024-01-11T16:47:10;103474.13;;;17.81;34.89
85268;BME280;75677;52.380;4.876;2024-01-11T16:49:35;103476.47;;;17.79;34.96
85268;BME280;75677;52.380;4.876;2024-01-11T16:52:02;103477.03;;;17.85;34.84
85268;BME280;75677;52.380;4.876;2024-01-11T16:54:30;103481.81;;;17.84;34.95
85268;BME280;75677;52.380;4.876;2024-01-11T16:56:56;103473.97;;;17.90;34.87
85268;BME280;75677;52.380;4.876;2024-01-11T16:59:21;103474.69;;;17.99;34.62
85268;BME280;75677;52.380;4.876;2024-01-11T17:01:47;103472.09;;;18.06;34.61
85268;BME280;75677;52.380;4.876;2024-01-11T17:04:12;103479.41;;;18.11;34.77
85268;BME280;75677;52.380;4.876;2024-01-11T17:06:39;103482.22;;;18.11;34.39
85268;BME280;75677;52.380;4.876;2024-01-11T17:09:05;103478.78;;;18.29;34.60
85268;BME280;75677;52.380;4.876;2024-01-11T17:11:32;103479.56;;;18.30;34.38
85268;BME280;75677;52.380;4.876;2024-01-11T17:13:57;103466.75;;;18.29;34.20
85268;BME280;75677;52.380;4.876;2024-01-11T17:16:24;103478.81;;;18.45;34.02
85268;BME280;75677;52.380;4.876;2024-01-11T17:18:49;103470.75;;;18.43;33.97
85268;BME280;75677;52.380;4.876;2024-01-11T17:21:15;103465.97;;;18.44;33.62
85268;BME280;75677;52.380;4.876;2024-01-11T17:23:40;103475.22;;;18.44;34.00
85268;BME280;75677;52.380;4.876;2024-01-11T17:26:06;103463.56;;;18.42;33.91
85268;BME280;75677;52.380;4.876;2024-01-11T17:28:32;103455.25;;;18.46;33.91
85268;BME280;75677;52.380;4.876;2024-01-11T17:30:58;103447.78;;;18.50;33.77
85268;BME280;75677;52.380;4.876;2024-01-11T17:33:24;103453.47;;;18.53;33.74
85268;BME280;75677;52.380;4.876;2024-01-11T17:35:50;103456.75;;;18.55;33.55
85268;BME280;75677;52.380;4.876;2024-01-11T17:38:15;103453.47;;;18.53;33.49
85268;BME280;75677;52.380;4.876;2024-01-11T17:40:41;103448.59;;;18.50;33.74
85268;BME280;75677;52.380;4.876;2024-01-11T17:43:06;103456.19;;;18.50;33.64
85268;BME280;75677;52.380;4.876;2024-01-11T17:45:32;103457.34;;;18.49;33.67
85268;BME280;75677;52.380;4.876;2024-01-11T17:48:00;103472.97;;;18.50;33.88
85268;BME280;75677;52.380;4.876;2024-01-11T17:50:27;103477.28;;;18.47;34.16
85268;BME280;75677;52.380;4.876;2024-01-11T17:52:52;103469.50;;;18.41;34.69
85268;BME280;75677;52.380;4.876;2024-01-11T17:55:18;103473.47;;;18.40;34.52
85268;BME280;75677;52.380;4.876;2024-01-11T17:57:44;103475.47;;;18.39;34.61
85268;BME280;75677;52.380;4.876;2024-01-11T18:00:09;103477.47;;;18.39;34.70
85268;BME280;75677;52.380;4.876;2024-01-11T18:02:35;103473.34;;;18.36;34.71
85268;BME280;75677;52.380;4.876;2024-01-11T18:05:01;103476.53;;;18.35;34.71
85268;BME280;75677;52.380;4.876;2024-01-11T18:07:27;103479.69;;;18.33;34.71
85268;BME280;75677;52.380;4.876;2024-01-11T18:09:52;103482.84;;;18.32;34.60
85268;BME280;75677;52.380;4.876;2024-01-11T18:12:19;103469.19;;;18.30;34.93
85268;BME280;75677;52.380;4.876;2024-01-11T18:14:45;103425.56;;;18.01;34.91
85268;BME280;75677;52.380;4.876;2024-01-11T18:17:11;103484.84;;;18.31;35.11
85268;BME280;75677;52.380;4.876;2024-01-11T18:19:38;103486.81;;;18.31;34.99
85268;BME280;75677;52.380;4.876;2024-01-11T18:22:03;103480.38;;;18.30;34.82
85268;BME280;75677;52.380;4.876;2024-01-11T18:24:29;103484.00;;;18.31;34.92
85268;BME280;75677;52.380;4.876;2024-01-11T18:26:55;103482.75;;;18.28;35.07
85268;BME280;75677;52.380;4.876;2024-01-11T18:29:20;103487.97;;;18.30;34.94
85268;BME280;75677;52.380;4.876;2024-01-11T18:31:48;103485.16;;;18.30;34.85
85268;BME280;75677;52.380;4.876;2024-01-11T18:34:14;103485.06;;;18.26;35.07
85268;BME280;75677;52.380;4.876;2024-01-11T18:36:43;103487.19;;;18.29;34.87
85268;BME280;75677;52.380;4.876;2024-01-11T18:39:09;103485.53;;;18.28;34.78
85268;BME280;75677;52.380;4.876;2024-01-11T18:41:36;103483.91;;;18.27;34.94
85268;BME280;75677;52.380;4.876;2024-01-11T18:44:01;103491.50;;;18.27;34.82
85268;BME280;75677;52.380;4.876;2024-01-11T18:46:27;103492.31;;;18.27;35.01
85268;BME280;75677;52.380;4.876;2024-01-11T18:48:53;103489.16;;;18.29;34.79
85268;BME280;75677;52.380;4.876;2024-01-11T18:51:18;103484.72;;;18.28;34.76
85268;BME280;75677;52.380;4.876;2024-01-11T18:53:44;103478.69;;;18.26;34.76
85268;BME280;75677;52.380;4.876;2024-01-11T18:56:15;103485.88;;;18.27;34.74
85268;BME280;75677;52.380;4.876;2024-01-11T18:58:42;103464.00;;;18.17;34.92
85268;BME280;75677;52.380;4.876;2024-01-11T19:01:08;103488.34;;;18.28;35.00
85268;BME280;75677;52.380;4.876;2024-01-11T19:03:34;103484.28;;;18.26;34.81
85268;BME280;75677;52.380;4.876;2024-01-11T19:05:59;103481.47;;;18.26;34.87
85268;BME280;75677;52.380;4.876;2024-01-11T19:08:25;103482.63;;;18.25;34.90
85268;BME280;75677;52.380;4.876;2024-01-11T19:10:53;103436.66;;;17.98;34.67
85268;BME280;75677;52.380;4.876;2024-01-11T19:13:19;103473.31;;;18.21;34.79
85268;BME280;75677;52.380;4.876;2024-01-11T19:15:45;103484.19;;;18.22;34.73
85268;BME280;75677;52.380;4.876;2024-01-11T19:18:15;103495.00;;;18.24;34.80
85268;BME280;75677;52.380;4.876;2024-01-11T19:20:41;103492.19;;;18.24;34.80
85268;BME280;75677;52.380;4.876;2024-01-11T19:23:06;103492.19;;;18.24;34.74
85268;BME280;75677;52.380;4.876;2024-01-11T19:25:33;103478.59;;;18.10;34.85
85268;BME280;75677;52.380;4.876;2024-01-11T19:28:02;103494.19;;;18.23;34.70
85268;BME280;75677;52.380;4.876;2024-01-11T19:30:28;103509.81;;;18.24;34.78
85268;BME280;75677;52.380;4.876;2024-01-11T19:32:54;103494.75;;;18.29;34.85
85268;BME280;75677;52.380;4.876;2024-01-11T19:35:20;103502.78;;;18.30;34.94
85268;BME280;75677;52.380;4.876;2024-01-11T19:37:45;103508.78;;;18.29;34.92
85268;BME280;75677;52.380;4.876;2024-01-11T19:40:11;103509.09;;;18.27;34.91
85268;BME280;75677;52.380;4.876;2024-01-11T19:42:36;103502.09;;;18.33;35.50
85268;BME280;75677;52.380;4.876;2024-01-11T19:45:02;103501.88;;;18.26;35.18
85268;BME280;75677;52.380;4.876;2024-01-11T19:47:28;103512.03;;;18.31;34.82
85268;BME280;75677;52.380;4.876;2024-01-11T19:49:53;103505.50;;;18.27;34.79
85268;BME280;75677;52.380;4.876;2024-01-11T19:52:19;103509.81;;;18.24;34.78
85268;BME280;75677;52.380;4.876;2024-01-11T19:54:44;103504.94;;;18.21;34.63
85268;BME280;75677;52.380;4.876;2024-01-11T19:57:11;103510.53;;;18.21;34.56
85268;BME280;75677;52.380;4.876;2024-01-11T19:59:39;103497.13;;;18.15;34.45
85268;BME280;75677;52.380;4.876;2024-01-11T20:02:07;103510.69;;;18.13;34.58
85268;BME280;75677;52.380;4.876;2024-01-11T20:04:33;103506.25;;;18.12;34.64
85268;BME280;75677;52.380;4.876;2024-01-11T20:06:59;103508.22;;;18.11;34.45
85268;BME280;75677;52.380;4.876;2024-01-11T20:09:25;103506.03;;;18.04;34.75
85268;BME280;75677;52.380;4.876;2024-01-11T20:11:50;103513.38;;;18.09;34.61
85268;BME280;75677;52.380;4.876;2024-01-11T20:14:16;103510.81;;;18.04;34.43
85268;BME280;75677;52.380;4.876;2024-01-11T20:16:42;103515.69;;;18.07;34.71
85268;BME280;75677;52.380;4.876;2024-01-11T20:19:07;103510.69;;;18.00;34.66
85268;BME280;75677;52.380;4.876;2024-01-11T20:21:33;103504.16;;;17.96;34.75
85268;BME280;75677;52.380;4.876;2024-01-11T20:23:59;103509.69;;;17.93;35.27
85268;BME280;75677;52.380;4.876;2024-01-11T20:26:24;103506.28;;;17.87;35.52
85268;BME280;75677;52.380;4.876;2024-01-11T20:28:50;103514.56;;;17.84;35.47
85268;BME280;75677;52.380;4.876;2024-01-11T20:31:15;103513.31;;;17.81;35.45
85268;BME280;75677;52.380;4.876;2024-01-11T20:33:42;103486.41;;;17.65;35.33
85268;BME280;75677;52.380;4.876;2024-01-11T20:36:07;103517.16;;;17.77;35.16
85268;BME280;75677;52.380;4.876;2024-01-11T20:38:33;103524.28;;;17.74;35.00
85268;BME280;75677;52.380;4.876;2024-01-11T20:40:59;103520.53;;;17.70;35.00
85268;BME280;75677;52.380;4.876;2024-01-11T20:43:24;103518.44;;;17.67;35.01
85268;BME280;75677;52.380;4.876;2024-01-11T20:45:51;103517.88;;;17.62;35.42
85268;BME280;75677;52.380;4.876;2024-01-11T20:48:17;103521.81;;;17.61;35.20
85268;BME280;75677;52.380;4.876;2024-01-11T20:50:43;103524.16;;;17.59;35.31
85268;BME280;75677;52.380;4.876;2024-01-11T20:53:08;103519.28;;;17.55;35.41
85268;BME280;75677;52.380;4.876;2024-01-11T20:55:34;103521.94;;;17.52;35.38
85268;BME280;75677;52.380;4.876;2024-01-11T20:57:59;103524.59;;;17.48;35.45
85268;BME280;75677;52.380;4.876;2024-01-11T21:00:25;103527.41;;;17.48;35.24
85268;BME280;75677;52.380;4.876;2024-01-11T21:02:52;103488.72;;;17.26;35.25
85268;BME280;75677;52.380;4.876;2024-01-11T21:05:19;103520.75;;;17.41;35.30
85268;BME280;75677;52.380;4.876;2024-01-11T21:07:45;103525.63;;;17.44;35.39
85268;BME280;75677;52.380;4.876;2024-01-11T21:10:11;103514.44;;;17.44;35.32
85268;BME280;75677;52.380;4.876;2024-01-11T21:12:37;103514.22;;;17.37;35.44
85268;BME280;75677;52.380;4.876;2024-01-11T21:15:02;103523.53;;;17.41;35.40
85268;BME280;75677;52.380;4.876;2024-01-11T21:17:28;103526.72;;;17.39;35.72
85268;BME280;75677;52.380;4.876;2024-01-11T21:19:53;103525.53;;;17.40;35.76
85268;BME280;75677;52.380;4.876;2024-01-11T21:22:19;103517.13;;;17.40;35.68
85268;BME280;75677;52.380;4.876;2024-01-11T21:24:46;103514.59;;;17.35;35.65
85268;BME280;75677;52.380;4.876;2024-01-11T21:27:11;103532.75;;;17.41;35.84
85268;BME280;75677;52.380;4.876;2024-01-11T21:29:37;103509.66;;;17.20;35.82
85268;BME280;75677;52.380;4.876;2024-01-11T21:32:03;103515.84;;;17.26;35.77
85268;BME280;75677;52.380;4.876;2024-01-11T21:34:28;103530.19;;;17.36;35.81
85268;BME280;75677;52.380;4.876;2024-01-11T21:36:53;103539.88;;;17.39;35.91
85268;BME280;75677;52.380;4.876;2024-01-11T21:39:19;103523.78;;;17.36;35.70
85268;BME280;75677;52.380;4.876;2024-01-11T21:41:45;103520.50;;;17.34;35.78
85268;BME280;75677;52.380;4.876;2024-01-11T21:44:10;103536.59;;;17.37;35.81
85268;BME280;75677;52.380;4.876;2024-01-11T21:46:36;103533.00;;;17.36;35.71
85268;BME280;75677;52.380;4.876;2024-01-11T21:49:02;103526.09;;;17.34;35.49
85268;BME280;75677;52.380;4.876;2024-01-11T21:51:29;103532.19;;;17.36;35.79
85268;BME280;75677;52.380;4.876;2024-01-11T21:53:54;103519.34;;;17.35;35.80
85268;BME280;75677;52.380;4.876;2024-01-11T21:56:23;103521.69;;;17.33;35.62
85268;BME280;75677;52.380;4.876;2024-01-11T21:58:49;103509.19;;;17.30;35.47
85268;BME280;75677;52.380;4.876;2024-01-11T22:01:14;103517.25;;;17.32;35.52
85268;BME280;75677;52.380;4.876;2024-01-11T22:03:40;103528.91;;;17.34;35.57
85268;BME280;75677;52.380;4.876;2024-01-11T22:06:08;103526.09;;;17.34;35.53
85268;BME280;75677;52.380;4.876;2024-01-11T22:08:34;103532.88;;;17.33;35.53
85268;BME280;75677;52.380;4.876;2024-01-11T22:10:59;103524.00;;;17.31;35.57
85268;BME280;75677;52.380;4.876;2024-01-11T22:13:27;103534.72;;;17.29;35.49
85268;BME280;75677;52.380;4.876;2024-01-11T22:15:52;103537.97;;;17.31;35.50
85268;BME280;75677;52.380;4.876;2024-01-11T22:18:18;103537.53;;;17.29;35.67
85268;BME280;75677;52.380;4.876;2024-01-11T22:20:43;103539.84;;;17.27;35.43
85268;BME280;75677;52.380;4.876;2024-01-11T22:23:08;103542.28;;;17.28;35.50
85268;BME280;75677;52.380;4.876;2024-01-11T22:25:34;103542.28;;;17.28;35.57
85268;BME280;75677;52.380;4.876;2024-01-11T22:28:00;103543.44;;;17.27;35.67
85268;BME280;75677;52.380;4.876;2024-01-11T22:30:25;103539.03;;;17.26;35.65
85268;BME280;75677;52.380;4.876;2024-01-11T22:32:50;103544.16;;;17.24;35.63
85268;BME280;75677;52.380;4.876;2024-01-11T22:35:17;103553.03;;;17.26;35.29
85268;BME280;75677;52.380;4.876;2024-01-11T22:37:43;103556.16;;;17.25;35.35
85268;BME280;75677;52.380;4.876;2024-01-11T22:40:09;103557.78;;;17.26;35.49
85268;BME280;75677;52.380;4.876;2024-01-11T22:42:34;103551.50;;;17.17;35.57
85268;BME280;75677;52.380;4.876;2024-01-11T22:45:00;103556.03;;;17.21;35.42
85268;BME280;75677;52.380;4.876;2024-01-11T22:47:26;103556.97;;;17.25;35.25
85268;BME280;75677;52.380;4.876;2024-01-11T22:49:52;103551.72;;;17.24;35.44
85268;BME280;75677;52.380;4.876;2024-01-11T22:52:18;103552.91;;;17.23;35.31
85268;BME280;75677;52.380;4.876;2024-01-11T22:54:44;103547.31;;;17.23;35.29
85268;BME280;75677;52.380;4.876;2024-01-11T22:57:10;103536.13;;;17.23;35.11
85268;BME280;75677;52.380;4.876;2024-01-11T22:59:36;103527.81;;;17.14;35.10
85268;BME280;75677;52.380;4.876;2024-01-11T23:02:02;103543.19;;;17.20;35.13
85268;BME280;75677;52.380;4.876;2024-01-11T23:04:32;103522.09;;;17.11;35.12
85268;BME280;75677;52.380;4.876;2024-01-11T23:06:58;103528.44;;;17.20;35.17
85268;BME280;75677;52.380;4.876;2024-01-11T23:09:24;103531.22;;;17.20;34.98
85268;BME280;75677;52.380;4.876;2024-01-11T23:11:50;103534.59;;;17.13;35.37
85268;BME280;75677;52.380;4.876;2024-01-11T23:14:16;103553.59;;;17.20;35.24
85268;BME280;75677;52.380;4.876;2024-01-11T23:16:47;103547.19;;;17.19;35.19
85268;BME280;75677;52.380;4.876;2024-01-11T23:19:15;103531.81;;;17.13;35.11
85268;BME280;75677;52.380;4.876;2024-01-11T23:21:41;103539.13;;;17.18;35.12
85268;BME280;75677;52.380;4.876;2024-01-11T23:24:06;103537.50;;;17.17;35.24
85268;BME280;75677;52.380;4.876;2024-01-11T23:26:32;103538.19;;;17.14;35.11
85268;BME280;75677;52.380;4.876;2024-01-11T23:29:00;103530.63;;;17.14;35.15
85268;BME280;75677;52.380;4.876;2024-01-11T23:31:26;103538.78;;;17.19;35.14
85268;BME280;75677;52.380;4.876;2024-01-11T23:33:51;103544.25;;;17.16;35.21
85268;BME280;75677;52.380;4.876;2024-01-11T23:36:17;103545.09;;;17.16;35.21
85268;BME280;75677;52.380;4.876;2024-01-11T23:38:43;103542.63;;;17.15;35.08
85268;BME280;75677;52.380;4.876;2024-01-11T23:41:08;103552.16;;;17.14;34.94
85268;BME280;75677;52.380;4.876;2024-01-11T23:43:34;103554.94;;;17.14;35.10
85268;BME280;75677;52.380;4.876;2024-01-11T23:45:59;103531.56;;;17.06;35.05
85268;BME280;75677;52.380;4.876;2024-01-11T23:48:25;103552.66;;;17.16;35.24
85268;BME280;75677;52.380;4.876;2024-01-11T23:50:51;103543.09;;;17.17;35.17
85268;BME280;75677;52.380;4.876;2024-01-11T23:53:18;103537.13;;;17.06;35.11
85268;BME280;75677;52.380;4.876;2024-01-11T23:55:43;103551.00;;;17.15;35.15
85268;BME280;75677;52.380;4.876;2024-01-11T23:58:10;103494.84;;;16.83;34.84
